createdAt,value
2019-04-07T00:01:29.081Z,10.50
2019-04-07T00:06:30.694Z,10.40
2019-04-07T00:11:32.450Z,10.50
2019-04-07T00:16:34.305Z,10.50
2019-04-07T00:21:36.432Z,10.30
2019-04-07T00:26:38.099Z,10.30
2019-04-07T00:31:39.847Z,10.10
2019-04-07T00:36:41.981Z,10.00
2019-04-07T00:41:43.545Z,9.80
2019-04-07T00:46:45.026Z,9.80
2019-04-07T00:51:47.587Z,9.80
2019-04-07T00:56:49.097Z,9.90
2019-04-07T01:01:50.627Z,10.00
2019-04-07T01:06:52.693Z,9.90
2019-04-07T01:11:54.791Z,9.80
2019-04-07T01:16:56.459Z,9.80
2019-04-07T01:21:57.940Z,9.70
2019-04-07T01:26:59.430Z,9.70
2019-04-07T01:32:01.306Z,9.40
2019-04-07T01:37:03.517Z,9.40
2019-04-07T01:42:10.227Z,9.50
2019-04-07T01:47:13.629Z,9.50
2019-04-07T01:52:22.926Z,9.50
2019-04-07T01:57:46.560Z,9.40
2019-04-07T02:02:54.539Z,9.20
2019-04-07T02:07:58.122Z,9.40
2019-04-07T02:13:02.145Z,9.30
2019-04-07T02:18:05.997Z,9.30
2019-04-07T02:23:10.156Z,9.10
2019-04-07T02:28:30.867Z,9.10
2019-04-07T02:33:34.936Z,9.10
2019-04-07T02:38:38.964Z,8.90
2019-04-07T02:43:42.576Z,8.90
2019-04-07T02:49:02.715Z,8.90
2019-04-07T02:54:22.791Z,8.80
2019-04-07T02:59:44.125Z,8.70
2019-04-07T03:04:53.602Z,8.60
2019-04-07T03:09:57.758Z,8.40
2019-04-07T03:15:04.004Z,8.30
2019-04-07T03:20:10.753Z,8.30
2019-04-07T03:25:30.717Z,8.20
2019-04-07T03:30:45.320Z,8.00
2019-04-07T03:36:03.039Z,7.80
2019-04-07T03:41:16.186Z,7.90
2019-04-07T03:46:34.881Z,7.80
2019-04-07T03:51:38.250Z,7.70
2019-04-07T03:57:00.441Z,7.60
2019-04-07T04:02:20.635Z,7.30
2019-04-07T04:07:31.601Z,7.10
2019-04-07T04:12:49.023Z,6.90
2019-04-07T04:17:51.403Z,6.80
2019-04-07T04:22:52.952Z,6.80
2019-04-07T04:27:55.011Z,6.70
2019-04-07T04:32:56.785Z,6.60
2019-04-07T04:37:58.251Z,6.50
2019-04-07T04:43:00.093Z,6.60
2019-04-07T04:48:02.719Z,6.60
2019-04-07T04:53:04.521Z,6.50
2019-04-07T04:58:06.086Z,6.70
2019-04-07T05:03:08.240Z,6.80
2019-04-07T05:08:10.514Z,6.80
2019-04-07T05:13:12.209Z,6.80
2019-04-07T05:18:14.317Z,6.90
2019-04-07T05:23:16.447Z,7.00
2019-04-07T05:28:19.075Z,6.90
2019-04-07T05:33:21.162Z,7.10
2019-04-07T05:38:23.289Z,7.10
2019-04-07T05:43:26.169Z,7.30
2019-04-07T05:48:27.982Z,7.50
2019-04-07T05:53:29.903Z,7.60
2019-04-07T05:58:31.396Z,8.00
2019-04-07T06:03:33.011Z,8.00
2019-04-07T06:08:37.990Z,8.20
2019-04-07T06:13:38.139Z,8.40
2019-04-07T06:18:39.711Z,8.50
2019-04-07T06:23:41.171Z,9.00
2019-04-07T06:28:43.561Z,9.00
2019-04-07T06:33:45.834Z,9.20
2019-04-07T06:38:51.346Z,9.30
2019-04-07T06:43:51.786Z,9.50
2019-04-07T06:49:04.316Z,9.70
2019-04-07T06:54:24.528Z,9.70
2019-04-07T06:59:34.044Z,10.00
2019-04-07T07:04:41.602Z,10.20
2019-04-07T07:09:47.037Z,10.40
2019-04-07T07:14:55.046Z,10.60
2019-04-07T07:20:16.586Z,10.70
2019-04-07T07:25:18.185Z,10.90
2019-04-07T07:30:20.543Z,11.10
2019-04-07T07:35:23.460Z,11.30
2019-04-07T07:40:25.569Z,11.60
2019-04-07T07:45:27.331Z,11.80
2019-04-07T07:50:29.926Z,12.20
2019-04-07T07:55:35.923Z,12.50
2019-04-07T08:00:39.949Z,12.80
2019-04-07T08:05:38.500Z,13.10
2019-04-07T08:10:40.038Z,13.30
2019-04-07T08:15:41.641Z,13.50
2019-04-07T08:20:44.913Z,14.00
2019-04-07T08:25:46.681Z,14.40
2019-04-07T08:30:49.096Z,14.60
2019-04-07T08:35:51.486Z,14.80
2019-04-07T08:40:55.177Z,15.10
2019-04-07T08:45:56.827Z,15.40
2019-04-07T08:51:00.497Z,15.60
2019-04-07T08:56:02.140Z,15.70
2019-04-07T09:01:03.652Z,15.90
2019-04-07T09:06:06.161Z,16.00
2019-04-07T09:11:15.776Z,16.10
2019-04-07T09:16:22.483Z,16.20
2019-04-07T09:21:38.790Z,16.40
2019-04-07T09:26:34.348Z,16.40
2019-04-07T09:32:14.544Z,16.60
2019-04-07T09:37:36.698Z,16.50
2019-04-07T09:42:58.705Z,17.10
2019-04-07T09:48:19.200Z,17.30
2019-04-07T09:53:22.968Z,17.50
2019-04-07T09:58:44.607Z,17.60
2019-04-07T10:03:52.609Z,17.40
2019-04-07T10:09:02.130Z,17.70
2019-04-07T10:14:06.322Z,18.40
2019-04-07T10:19:26.966Z,18.30
2019-04-07T10:24:37.014Z,18.60
2019-04-07T10:29:58.029Z,18.60
2019-04-07T10:35:02.446Z,18.80
2019-04-07T10:40:24.402Z,19.30
2019-04-07T10:45:28.427Z,19.00
2019-04-07T10:50:36.812Z,19.30
2019-04-07T10:55:46.167Z,19.50
2019-04-07T11:01:06.426Z,19.00
2019-04-07T11:06:19.174Z,19.40
2019-04-07T11:11:35.756Z,19.30
2019-04-07T11:16:39.252Z,19.70
2019-04-07T11:21:45.510Z,19.70
2019-04-07T11:26:55.023Z,20.30
2019-04-07T11:32:07.644Z,20.00
2019-04-07T11:37:20.012Z,20.60
2019-04-07T11:42:24.025Z,20.30
2019-04-07T11:47:27.567Z,20.30
2019-04-07T11:52:37.020Z,21.10
2019-04-07T11:57:45.284Z,20.90
2019-04-07T12:02:54.572Z,20.40
2019-04-07T12:08:09.470Z,20.50
2019-04-07T12:13:13.324Z,21.40
2019-04-07T12:18:34.152Z,20.80
2019-04-07T12:23:55.327Z,20.60
2019-04-07T12:29:14.445Z,21.20
2019-04-07T12:34:20.694Z,21.10
2019-04-07T12:39:36.117Z,21.80
2019-04-07T12:44:39.881Z,21.00
2019-04-07T12:49:44.965Z,21.30
2019-04-07T12:55:01.968Z,21.00
2019-04-07T13:00:25.160Z,22.00
2019-04-07T13:05:35.647Z,22.30
2019-04-07T13:10:39.291Z,22.10
2019-04-07T13:16:00.370Z,20.80
2019-04-07T13:21:04.381Z,20.70
2019-04-07T13:26:14.235Z,21.40
2019-04-07T13:31:18.111Z,21.10
2019-04-07T13:36:25.305Z,21.30
2019-04-07T13:41:38.699Z,21.70
2019-04-07T13:46:53.283Z,21.60
2019-04-07T13:52:17.809Z,21.40
2019-04-07T13:57:35.992Z,21.80
2019-04-07T14:02:57.124Z,21.40
2019-04-07T14:08:07.083Z,22.20
2019-04-07T14:13:26.691Z,21.50
2019-04-07T14:18:33.109Z,21.50
2019-04-07T14:23:45.198Z,21.50
2019-04-07T14:28:48.702Z,21.30
2019-04-07T14:33:53.479Z,21.10
2019-04-07T14:38:56.002Z,20.90
2019-04-07T14:43:59.949Z,21.00
2019-04-07T14:49:13.495Z,20.80
2019-04-07T14:54:33.418Z,20.70
2019-04-07T14:59:37.292Z,21.00
2019-04-07T15:04:43.570Z,20.80
2019-04-07T15:10:03.942Z,20.50
2019-04-07T15:15:09.180Z,20.30
2019-04-07T15:20:13.718Z,20.30
2019-04-07T15:25:13.758Z,20.20
2019-04-07T15:30:16.902Z,19.90
2019-04-07T15:35:18.623Z,19.70
2019-04-07T15:40:20.366Z,19.50
2019-04-07T15:45:21.970Z,19.30
2019-04-07T15:50:24.520Z,19.10
2019-04-07T15:55:42.407Z,18.90
2019-04-07T16:00:32.507Z,18.60
2019-04-07T16:05:41.263Z,18.60
2019-04-07T16:10:37.278Z,18.60
2019-04-07T16:15:42.580Z,18.50
2019-04-07T16:20:43.230Z,18.40
2019-04-07T16:25:44.793Z,18.30
2019-04-07T16:30:49.562Z,18.30
2019-04-07T16:35:53.960Z,18.00
2019-04-07T16:40:53.845Z,17.90
2019-04-07T16:45:55.855Z,17.70
2019-04-07T16:50:57.315Z,17.40
2019-04-07T16:55:58.907Z,17.50
2019-04-07T17:01:01.244Z,17.50
2019-04-07T17:06:03.083Z,17.20
2019-04-07T17:11:07.666Z,17.00
2019-04-07T17:16:10.984Z,16.80
2019-04-07T17:21:16.129Z,16.50
2019-04-07T17:26:18.105Z,16.30
2019-04-07T17:31:20.720Z,16.10
2019-04-07T17:36:23.736Z,15.90
2019-04-07T17:41:25.702Z,15.60
2019-04-07T17:46:44.362Z,15.30
2019-04-07T17:51:48.798Z,15.00
2019-04-07T17:56:52.204Z,14.60
2019-04-07T18:02:10.889Z,14.20
2019-04-07T18:07:17.525Z,13.90
2019-04-07T18:12:21.802Z,13.60
2019-04-07T18:17:44.476Z,13.30
2019-04-07T18:22:54.807Z,13.10
2019-04-07T18:28:04.432Z,12.90
2019-04-07T18:33:06.563Z,12.60
2019-04-07T18:38:12.075Z,12.40
2019-04-07T18:43:28.997Z,12.20
2019-04-07T18:48:36.031Z,12.10
2019-04-07T18:53:48.606Z,11.80
2019-04-07T18:58:58.229Z,11.80
2019-04-07T19:04:05.417Z,11.40
2019-04-07T19:09:08.158Z,11.40
2019-04-07T19:14:40.268Z,11.20
2019-04-07T19:19:33.803Z,11.00
2019-04-07T19:24:37.860Z,10.90
2019-04-07T19:29:43.047Z,10.80
2019-04-07T19:34:43.071Z,10.70
2019-04-07T19:40:01.528Z,10.60
2019-04-07T19:45:24.761Z,10.50
2019-04-07T19:50:29.038Z,10.40
2019-04-07T19:55:32.510Z,10.20
2019-04-07T20:00:39.467Z,10.10
2019-04-07T20:05:50.190Z,10.00
2019-04-07T20:11:05.012Z,9.80
2019-04-07T20:16:20.241Z,9.90
2019-04-07T20:21:42.785Z,10.00
2019-04-07T20:27:17.557Z,10.20
2019-04-07T20:32:28.093Z,10.70
2019-04-07T20:37:37.969Z,11.00
2019-04-07T20:42:41.477Z,11.20
2019-04-07T20:48:00.260Z,11.00
2019-04-07T20:53:10.104Z,10.90
2019-04-07T20:58:17.234Z,11.10
2019-04-07T21:03:26.784Z,11.10
2019-04-07T21:08:36.401Z,11.10
2019-04-07T21:13:39.790Z,11.20
2019-04-07T21:18:56.365Z,11.10
2019-04-07T21:24:03.655Z,10.90
2019-04-07T21:29:12.986Z,11.00
2019-04-07T21:34:33.610Z,10.80
2019-04-07T21:39:39.712Z,10.70
2019-04-07T21:44:47.653Z,10.60
2019-04-07T21:49:51.484Z,10.50
2019-04-07T21:55:06.040Z,10.50
2019-04-07T22:00:18.860Z,10.30
2019-04-07T22:05:26.871Z,10.30
2019-04-07T22:10:28.696Z,10.10
2019-04-07T22:15:41.433Z,10.30
2019-04-07T22:20:34.833Z,10.10
2019-04-07T22:25:42.194Z,10.10
2019-04-07T22:30:44.762Z,10.10
2019-04-07T22:35:46.341Z,9.90
2019-04-07T22:40:47.818Z,9.70
2019-04-07T22:45:59.014Z,9.60
2019-04-07T22:50:53.806Z,9.40
2019-04-07T22:55:55.528Z,9.20
2019-04-07T23:00:58.564Z,9.10
2019-04-07T23:06:01.035Z,8.80
2019-04-07T23:11:03.100Z,8.70
2019-04-07T23:16:11.645Z,8.50
2019-04-07T23:21:07.999Z,8.30
2019-04-07T23:26:09.936Z,8.10
2019-04-07T23:31:11.735Z,8.00
2019-04-07T23:36:13.684Z,7.80
2019-04-07T23:41:15.921Z,7.70
2019-04-07T23:46:23.051Z,7.60
2019-04-07T23:51:20.915Z,7.50
2019-04-07T23:56:22.770Z,7.40
